sensor_id;sensor_type;location;lat;lon;timestamp;P1;durP1;ratioP1;P2;durP2;ratioP2
13321;SDS011;6730;46.248;6.930;2024-03-02T00:00:08;1.37;;;1.23;;
13321;SDS011;6730;46.248;6.930;2024-03-02T00:02:42;1.70;;;1.60;;
13321;SDS011;6730;46.248;6.930;2024-03-02T00:05:09;1.80;;;1.40;;
13321;SDS011;6730;46.248;6.930;2024-03-02T00:07:37;0.90;;;0.70;;
13321;SDS011;6730;46.248;6.930;2024-03-02T00:10:05;0.60;;;0.60;;
13321;SDS011;6730;46.248;6.930;2024-03-02T00:12:35;1.97;;;1.43;;
13321;SDS011;6730;46.248;6.930;2024-03-02T00:15:04;1.87;;;1.00;;
13321;SDS011;6730;46.248;6.930;2024-03-02T00:17:45;1.30;;;1.10;;
13321;SDS011;6730;46.248;6.930;2024-03-02T00:20:11;1.40;;;1.10;;
13321;SDS011;6730;46.248;6.930;2024-03-02T00:22:43;1.10;;;1.00;;
13321;SDS011;6730;46.248;6.930;2024-03-02T00:25:08;1.30;;;1.00;;
13321;SDS011;6730;46.248;6.930;2024-03-02T00:27:35;3.13;;;1.57;;
13321;SDS011;6730;46.248;6.930;2024-03-02T00:30:01;5.30;;;3.10;;
13321;SDS011;6730;46.248;6.930;2024-03-02T00:32:51;5.90;;;2.97;;
13321;SDS011;6730;46.248;6.930;2024-03-02T00:35:18;4.83;;;2.60;;
13321;SDS011;6730;46.248;6.930;2024-03-02T00:37:45;5.47;;;3.20;;
13321;SDS011;6730;46.248;6.930;2024-03-02T00:40:11;4.83;;;2.70;;
13321;SDS011;6730;46.248;6.930;2024-03-02T00:42:38;2.90;;;2.07;;
13321;SDS011;6730;46.248;6.930;2024-03-02T00:45:07;4.43;;;1.77;;
13321;SDS011;6730;46.248;6.930;2024-03-02T00:47:37;3.57;;;1.87;;
13321;SDS011;6730;46.248;6.930;2024-03-02T00:50:04;3.90;;;1.80;;
13321;SDS011;6730;46.248;6.930;2024-03-02T00:52:31;4.13;;;2.27;;
13321;SDS011;6730;46.248;6.930;2024-03-02T00:54:58;3.23;;;1.93;;
13321;SDS011;6730;46.248;6.930;2024-03-02T00:57:24;4.77;;;2.60;;
13321;SDS011;6730;46.248;6.930;2024-03-02T00:59:51;2.90;;;2.17;;
13321;SDS011;6730;46.248;6.930;2024-03-02T01:02:17;3.23;;;2.30;;
13321;SDS011;6730;46.248;6.930;2024-03-02T01:04:45;2.50;;;1.60;;
13321;SDS011;6730;46.248;6.930;2024-03-02T01:07:10;2.13;;;1.53;;
13321;SDS011;6730;46.248;6.930;2024-03-02T01:09:36;1.97;;;1.40;;
13321;SDS011;6730;46.248;6.930;2024-03-02T01:12:02;2.53;;;1.23;;
13321;SDS011;6730;46.248;6.930;2024-03-02T01:14:27;2.83;;;1.70;;
13321;SDS011;6730;46.248;6.930;2024-03-02T01:16:53;2.70;;;1.63;;
13321;SDS011;6730;46.248;6.930;2024-03-02T01:19:19;3.13;;;2.20;;
13321;SDS011;6730;46.248;6.930;2024-03-02T01:21:44;3.57;;;1.80;;
13321;SDS011;6730;46.248;6.930;2024-03-02T01:24:10;2.30;;;1.50;;
13321;SDS011;6730;46.248;6.930;2024-03-02T01:26:36;1.83;;;1.30;;
13321;SDS011;6730;46.248;6.930;2024-03-02T01:29:01;1.00;;;0.90;;
13321;SDS011;6730;46.248;6.930;2024-03-02T01:31:27;1.07;;;0.90;;
13321;SDS011;6730;46.248;6.930;2024-03-02T01:33:53;1.40;;;1.20;;
13321;SDS011;6730;46.248;6.930;2024-03-02T01:36:19;1.50;;;1.10;;
13321;SDS011;6730;46.248;6.930;2024-03-02T01:38:44;1.13;;;0.80;;
13321;SDS011;6730;46.248;6.930;2024-03-02T01:41:10;1.53;;;0.80;;
13321;SDS011;6730;46.248;6.930;2024-03-02T01:43:36;1.70;;;0.97;;
13321;SDS011;6730;46.248;6.930;2024-03-02T01:46:02;0.93;;;0.80;;
13321;SDS011;6730;46.248;6.930;2024-03-02T01:48:28;0.70;;;0.70;;
13321;SDS011;6730;46.248;6.930;2024-03-02T01:50:54;0.73;;;0.63;;
13321;SDS011;6730;46.248;6.930;2024-03-02T01:53:20;0.90;;;0.70;;
13321;SDS011;6730;46.248;6.930;2024-03-02T01:55:46;0.77;;;0.70;;
13321;SDS011;6730;46.248;6.930;2024-03-02T01:58:11;1.27;;;0.60;;
13321;SDS011;6730;46.248;6.930;2024-03-02T02:00:37;1.07;;;0.97;;
13321;SDS011;6730;46.248;6.930;2024-03-02T02:03:03;0.53;;;0.53;;
13321;SDS011;6730;46.248;6.930;2024-03-02T02:05:29;0.80;;;0.73;;
13321;SDS011;6730;46.248;6.930;2024-03-02T02:07:54;0.80;;;0.70;;
13321;SDS011;6730;46.248;6.930;2024-03-02T02:10:20;0.70;;;0.60;;
13321;SDS011;6730;46.248;6.930;2024-03-02T02:12:46;1.53;;;0.80;;
13321;SDS011;6730;46.248;6.930;2024-03-02T02:15:27;0.50;;;0.50;;
13321;SDS011;6730;46.248;6.930;2024-03-02T02:17:57;0.50;;;0.47;;
13321;SDS011;6730;46.248;6.930;2024-03-02T02:20:23;1.37;;;0.87;;
13321;SDS011;6730;46.248;6.930;2024-03-02T02:23:03;0.50;;;0.50;;
13321;SDS011;6730;46.248;6.930;2024-03-02T02:25:30;0.30;;;0.30;;
13321;SDS011;6730;46.248;6.930;2024-03-02T02:27:56;1.13;;;0.43;;
13321;SDS011;6730;46.248;6.930;2024-03-02T02:30:23;0.50;;;0.50;;
13321;SDS011;6730;46.248;6.930;2024-03-02T02:32:51;0.47;;;0.47;;
13321;SDS011;6730;46.248;6.930;2024-03-02T02:35:16;0.50;;;0.50;;
13321;SDS011;6730;46.248;6.930;2024-03-02T02:37:43;1.27;;;0.40;;
13321;SDS011;6730;46.248;6.930;2024-03-02T02:40:10;1.13;;;0.70;;
13321;SDS011;6730;46.248;6.930;2024-03-02T02:42:37;0.60;;;0.50;;
13321;SDS011;6730;46.248;6.930;2024-03-02T02:45:03;0.70;;;0.50;;
13321;SDS011;6730;46.248;6.930;2024-03-02T02:47:29;0.60;;;0.50;;
13321;SDS011;6730;46.248;6.930;2024-03-02T02:49:55;0.67;;;0.60;;
13321;SDS011;6730;46.248;6.930;2024-03-02T02:52:21;1.10;;;0.80;;
13321;SDS011;6730;46.248;6.930;2024-03-02T02:54:47;0.50;;;0.50;;
13321;SDS011;6730;46.248;6.930;2024-03-02T02:57:12;0.40;;;0.40;;
13321;SDS011;6730;46.248;6.930;2024-03-02T02:59:38;0.50;;;0.50;;
13321;SDS011;6730;46.248;6.930;2024-03-02T03:02:04;1.17;;;0.70;;
13321;SDS011;6730;46.248;6.930;2024-03-02T03:04:30;0.80;;;0.50;;
13321;SDS011;6730;46.248;6.930;2024-03-02T03:06:55;1.23;;;0.50;;
13321;SDS011;6730;46.248;6.930;2024-03-02T03:09:21;0.33;;;0.33;;
13321;SDS011;6730;46.248;6.930;2024-03-02T03:11:47;0.57;;;0.57;;
13321;SDS011;6730;46.248;6.930;2024-03-02T03:14:12;0.47;;;0.40;;
13321;SDS011;6730;46.248;6.930;2024-03-02T03:16:38;0.40;;;0.40;;
13321;SDS011;6730;46.248;6.930;2024-03-02T03:19:03;0.40;;;0.40;;
13321;SDS011;6730;46.248;6.930;2024-03-02T03:21:29;1.23;;;0.40;;
13321;SDS011;6730;46.248;6.930;2024-03-02T03:23:55;0.30;;;0.30;;
13321;SDS011;6730;46.248;6.930;2024-03-02T03:26:20;0.50;;;0.50;;
13321;SDS011;6730;46.248;6.930;2024-03-02T03:28:46;0.63;;;0.50;;
13321;SDS011;6730;46.248;6.930;2024-03-02T03:31:11;1.10;;;0.63;;
13321;SDS011;6730;46.248;6.930;2024-03-02T03:33:37;0.47;;;0.47;;
13321;SDS011;6730;46.248;6.930;2024-03-02T03:36:03;0.77;;;0.60;;
13321;SDS011;6730;46.248;6.930;2024-03-02T03:38:29;0.60;;;0.60;;
13321;SDS011;6730;46.248;6.930;2024-03-02T03:40:55;0.60;;;0.60;;
13321;SDS011;6730;46.248;6.930;2024-03-02T03:43:21;0.90;;;0.90;;
13321;SDS011;6730;46.248;6.930;2024-03-02T03:45:46;0.50;;;0.50;;
13321;SDS011;6730;46.248;6.930;2024-03-02T03:48:12;0.63;;;0.50;;
13321;SDS011;6730;46.248;6.930;2024-03-02T03:50:37;1.00;;;0.60;;
13321;SDS011;6730;46.248;6.930;2024-03-02T03:53:03;0.70;;;0.60;;
13321;SDS011;6730;46.248;6.930;2024-03-02T03:55:29;0.47;;;0.40;;
13321;SDS011;6730;46.248;6.930;2024-03-02T03:57:54;0.50;;;0.43;;
13321;SDS011;6730;46.248;6.930;2024-03-02T04:00:20;0.50;;;0.50;;
13321;SDS011;6730;46.248;6.930;2024-03-02T04:02:46;0.50;;;0.50;;
13321;SDS011;6730;46.248;6.930;2024-03-02T04:05:11;1.20;;;0.70;;
13321;SDS011;6730;46.248;6.930;2024-03-02T04:07:37;0.50;;;0.50;;
13321;SDS011;6730;46.248;6.930;2024-03-02T04:10:06;0.60;;;0.50;;
13321;SDS011;6730;46.248;6.930;2024-03-02T04:12:33;0.40;;;0.40;;
13321;SDS011;6730;46.248;6.930;2024-03-02T04:15:00;0.63;;;0.40;;
13321;SDS011;6730;46.248;6.930;2024-03-02T04:17:26;0.40;;;0.40;;
13321;SDS011;6730;46.248;6.930;2024-03-02T04:19:52;0.57;;;0.57;;
13321;SDS011;6730;46.248;6.930;2024-03-02T04:22:18;0.73;;;0.60;;
13321;SDS011;6730;46.248;6.930;2024-03-02T04:24:43;0.67;;;0.60;;
13321;SDS011;6730;46.248;6.930;2024-03-02T04:27:09;0.60;;;0.60;;
13321;SDS011;6730;46.248;6.930;2024-03-02T04:29:35;1.33;;;0.80;;
13321;SDS011;6730;46.248;6.930;2024-03-02T04:32:00;0.50;;;0.50;;
13321;SDS011;6730;46.248;6.930;2024-03-02T04:34:29;0.87;;;0.50;;
13321;SDS011;6730;46.248;6.930;2024-03-02T04:36:55;0.60;;;0.50;;
13321;SDS011;6730;46.248;6.930;2024-03-02T04:39:21;0.67;;;0.63;;
13321;SDS011;6730;46.248;6.930;2024-03-02T04:41:46;0.90;;;0.80;;
13321;SDS011;6730;46.248;6.930;2024-03-02T04:44:12;0.60;;;0.60;;
13321;SDS011;6730;46.248;6.930;2024-03-02T04:46:38;1.20;;;0.60;;
13321;SDS011;6730;46.248;6.930;2024-03-02T04:49:04;0.60;;;0.60;;
13321;SDS011;6730;46.248;6.930;2024-03-02T04:51:29;1.60;;;0.70;;
13321;SDS011;6730;46.248;6.930;2024-03-02T04:53:55;0.80;;;0.77;;
13321;SDS011;6730;46.248;6.930;2024-03-02T04:56:21;0.73;;;0.60;;
13321;SDS011;6730;46.248;6.930;2024-03-02T04:59:05;0.63;;;0.60;;
13321;SDS011;6730;46.248;6.930;2024-03-02T05:01:31;1.00;;;0.70;;
13321;SDS011;6730;46.248;6.930;2024-03-02T05:03:58;0.80;;;0.67;;
13321;SDS011;6730;46.248;6.930;2024-03-02T05:06:24;0.80;;;0.70;;
13321;SDS011;6730;46.248;6.930;2024-03-02T05:08:49;0.77;;;0.67;;
13321;SDS011;6730;46.248;6.930;2024-03-02T05:11:18;0.80;;;0.60;;
13321;SDS011;6730;46.248;6.930;2024-03-02T05:14:10;0.63;;;0.57;;
13321;SDS011;6730;46.248;6.930;2024-03-02T05:16:35;0.83;;;0.70;;
13321;SDS011;6730;46.248;6.930;2024-03-02T05:19:05;0.50;;;0.47;;
13321;SDS011;6730;46.248;6.930;2024-03-02T05:21:33;0.47;;;0.40;;
13321;SDS011;6730;46.248;6.930;2024-03-02T05:23:59;0.40;;;0.40;;
13321;SDS011;6730;46.248;6.930;2024-03-02T05:26:25;0.50;;;0.50;;
13321;SDS011;6730;46.248;6.930;2024-03-02T05:28:51;1.13;;;0.80;;
13321;SDS011;6730;46.248;6.930;2024-03-02T05:31:18;0.57;;;0.40;;
13321;SDS011;6730;46.248;6.930;2024-03-02T05:33:43;0.47;;;0.47;;
13321;SDS011;6730;46.248;6.930;2024-03-02T05:36:09;0.50;;;0.50;;
13321;SDS011;6730;46.248;6.930;2024-03-02T05:38:35;0.53;;;0.53;;
13321;SDS011;6730;46.248;6.930;2024-03-02T05:41:01;0.50;;;0.50;;
13321;SDS011;6730;46.248;6.930;2024-03-02T05:43:27;0.50;;;0.50;;
13321;SDS011;6730;46.248;6.930;2024-03-02T05:45:53;0.50;;;0.40;;
13321;SDS011;6730;46.248;6.930;2024-03-02T05:48:18;0.50;;;0.37;;
13321;SDS011;6730;46.248;6.930;2024-03-02T05:50:44;0.27;;;0.27;;
13321;SDS011;6730;46.248;6.930;2024-03-02T05:53:10;0.60;;;0.60;;
13321;SDS011;6730;46.248;6.930;2024-03-02T05:55:35;0.40;;;0.30;;
13321;SDS011;6730;46.248;6.930;2024-03-02T05:58:01;0.50;;;0.40;;
13321;SDS011;6730;46.248;6.930;2024-03-02T06:00:45;0.37;;;0.37;;
13321;SDS011;6730;46.248;6.930;2024-03-02T06:03:11;0.67;;;0.60;;
13321;SDS011;6730;46.248;6.930;2024-03-02T06:05:36;0.30;;;0.27;;
13321;SDS011;6730;46.248;6.930;2024-03-02T06:08:02;1.37;;;0.70;;
13321;SDS011;6730;46.248;6.930;2024-03-02T06:10:28;0.97;;;0.70;;
13321;SDS011;6730;46.248;6.930;2024-03-02T06:12:54;1.37;;;0.60;;
13321;SDS011;6730;46.248;6.930;2024-03-02T06:15:20;0.60;;;0.60;;
13321;SDS011;6730;46.248;6.930;2024-03-02T06:17:45;1.80;;;0.43;;
13321;SDS011;6730;46.248;6.930;2024-03-02T06:20:11;0.40;;;0.40;;
13321;SDS011;6730;46.248;6.930;2024-03-02T06:22:37;0.40;;;0.30;;
13321;SDS011;6730;46.248;6.930;2024-03-02T06:25:02;1.53;;;0.60;;
13321;SDS011;6730;46.248;6.930;2024-03-02T06:27:28;0.30;;;0.30;;
13321;SDS011;6730;46.248;6.930;2024-03-02T06:29:54;0.30;;;0.30;;
13321;SDS011;6730;46.248;6.930;2024-03-02T06:32:19;0.57;;;0.50;;
13321;SDS011;6730;46.248;6.930;2024-03-02T06:34:45;0.70;;;0.50;;
13321;SDS011;6730;46.248;6.930;2024-03-02T06:37:11;0.23;;;0.20;;
13321;SDS011;6730;46.248;6.930;2024-03-02T06:39:38;0.93;;;0.40;;
13321;SDS011;6730;46.248;6.930;2024-03-02T06:42:03;0.80;;;0.30;;
13321;SDS011;6730;46.248;6.930;2024-03-02T06:44:29;0.50;;;0.20;;
13321;SDS011;6730;46.248;6.930;2024-03-02T06:46:55;0.50;;;0.50;;
13321;SDS011;6730;46.248;6.930;2024-03-02T06:49:20;0.50;;;0.50;;
13321;SDS011;6730;46.248;6.930;2024-03-02T06:51:46;0.43;;;0.40;;
13321;SDS011;6730;46.248;6.930;2024-03-02T06:54:12;1.43;;;0.50;;
13321;SDS011;6730;46.248;6.930;2024-03-02T06:56:37;0.50;;;0.50;;
13321;SDS011;6730;46.248;6.930;2024-03-02T06:59:04;0.40;;;0.40;;
13321;SDS011;6730;46.248;6.930;2024-03-02T07:01:30;0.40;;;0.40;;
13321;SDS011;6730;46.248;6.930;2024-03-02T07:03:55;0.23;;;0.23;;
13321;SDS011;6730;46.248;6.930;2024-03-02T07:06:21;0.20;;;0.20;;
13321;SDS011;6730;46.248;6.930;2024-03-02T07:08:47;0.20;;;0.20;;
13321;SDS011;6730;46.248;6.930;2024-03-02T07:11:12;0.53;;;0.40;;
13321;SDS011;6730;46.248;6.930;2024-03-02T07:13:38;0.23;;;0.23;;
13321;SDS011;6730;46.248;6.930;2024-03-02T07:16:03;0.50;;;0.50;;
13321;SDS011;6730;46.248;6.930;2024-03-02T07:18:48;0.47;;;0.47;;
13321;SDS011;6730;46.248;6.930;2024-03-02T07:21:16;0.83;;;0.83;;
13321;SDS011;6730;46.248;6.930;2024-03-02T07:23:42;1.33;;;0.70;;
13321;SDS011;6730;46.248;6.930;2024-03-02T07:26:08;0.67;;;0.67;;
13321;SDS011;6730;46.248;6.930;2024-03-02T07:28:33;0.90;;;0.80;;
13321;SDS011;6730;46.248;6.930;2024-03-02T07:31:00;0.97;;;0.73;;
13321;SDS011;6730;46.248;6.930;2024-03-02T07:33:26;0.50;;;0.50;;
13321;SDS011;6730;46.248;6.930;2024-03-02T07:35:52;0.80;;;0.80;;
13321;SDS011;6730;46.248;6.930;2024-03-02T07:38:19;3.20;;;1.00;;
13321;SDS011;6730;46.248;6.930;2024-03-02T07:40:45;0.82;;;0.73;;
13321;SDS011;6730;46.248;6.930;2024-03-02T07:43:11;0.70;;;0.70;;
13321;SDS011;6730;46.248;6.930;2024-03-02T07:45:36;1.20;;;0.88;;
13321;SDS011;6730;46.248;6.930;2024-03-02T07:48:02;1.00;;;0.90;;
13321;SDS011;6730;46.248;6.930;2024-03-02T07:50:31;1.83;;;1.70;;
13321;SDS011;6730;46.248;6.930;2024-03-02T07:52:59;0.85;;;0.80;;
13321;SDS011;6730;46.248;6.930;2024-03-02T07:55:25;1.02;;;0.90;;
13321;SDS011;6730;46.248;6.930;2024-03-02T07:57:51;0.90;;;0.90;;
13321;SDS011;6730;46.248;6.930;2024-03-02T08:00:17;1.05;;;0.90;;
13321;SDS011;6730;46.248;6.930;2024-03-02T08:02:43;3.35;;;1.10;;
13321;SDS011;6730;46.248;6.930;2024-03-02T08:05:08;1.30;;;1.20;;
13321;SDS011;6730;46.248;6.930;2024-03-02T08:07:34;1.27;;;1.10;;
13321;SDS011;6730;46.248;6.930;2024-03-02T08:10:00;1.70;;;1.20;;
13321;SDS011;6730;46.248;6.930;2024-03-02T08:12:26;1.38;;;1.20;;
13321;SDS011;6730;46.248;6.930;2024-03-02T08:14:51;1.65;;;1.13;;
13321;SDS011;6730;46.248;6.930;2024-03-02T08:17:17;1.23;;;1.10;;
13321;SDS011;6730;46.248;6.930;2024-03-02T08:19:43;2.20;;;1.33;;
13321;SDS011;6730;46.248;6.930;2024-03-02T08:22:09;1.80;;;1.30;;
13321;SDS011;6730;46.248;6.930;2024-03-02T08:24:35;1.30;;;1.20;;
13321;SDS011;6730;46.248;6.930;2024-03-02T08:27:01;1.60;;;1.40;;
13321;SDS011;6730;46.248;6.930;2024-03-02T08:29:27;2.20;;;1.30;;
13321;SDS011;6730;46.248;6.930;2024-03-02T08:31:53;2.63;;;1.52;;
13321;SDS011;6730;46.248;6.930;2024-03-02T08:34:19;1.40;;;1.27;;
13321;SDS011;6730;46.248;6.930;2024-03-02T08:36:45;1.48;;;1.20;;
13321;SDS011;6730;46.248;6.930;2024-03-02T08:39:11;2.10;;;1.30;;
13321;SDS011;6730;46.248;6.930;2024-03-02T08:41:41;1.67;;;1.58;;
13321;SDS011;6730;46.248;6.930;2024-03-02T08:44:08;1.58;;;1.30;;
13321;SDS011;6730;46.248;6.930;2024-03-02T08:46:34;3.92;;;1.55;;
13321;SDS011;6730;46.248;6.930;2024-03-02T08:49:00;1.23;;;1.13;;
13321;SDS011;6730;46.248;6.930;2024-03-02T08:51:25;1.70;;;1.40;;
13321;SDS011;6730;46.248;6.930;2024-03-02T08:53:51;3.55;;;1.50;;
13321;SDS011;6730;46.248;6.930;2024-03-02T08:56:16;2.20;;;1.30;;
13321;SDS011;6730;46.248;6.930;2024-03-02T08:58:42;1.30;;;1.20;;
13321;SDS011;6730;46.248;6.930;2024-03-02T09:01:09;1.70;;;1.45;;
13321;SDS011;6730;46.248;6.930;2024-03-02T09:03:36;2.95;;;2.10;;
13321;SDS011;6730;46.248;6.930;2024-03-02T09:06:02;1.90;;;1.08;;
13321;SDS011;6730;46.248;6.930;2024-03-02T09:08:28;1.85;;;1.38;;
13321;SDS011;6730;46.248;6.930;2024-03-02T09:10:54;1.73;;;1.35;;
13321;SDS011;6730;46.248;6.930;2024-03-02T09:13:21;3.53;;;1.55;;
13321;SDS011;6730;46.248;6.930;2024-03-02T09:15:47;1.38;;;1.20;;
13321;SDS011;6730;46.248;6.930;2024-03-02T09:18:16;2.63;;;1.30;;
13321;SDS011;6730;46.248;6.930;2024-03-02T09:20:42;3.10;;;1.70;;
13321;SDS011;6730;46.248;6.930;2024-03-02T09:23:07;2.97;;;1.50;;
13321;SDS011;6730;46.248;6.930;2024-03-02T09:25:33;1.83;;;1.40;;
13321;SDS011;6730;46.248;6.930;2024-03-02T09:27:59;1.45;;;1.30;;
13321;SDS011;6730;46.248;6.930;2024-03-02T09:30:24;1.35;;;1.00;;
13321;SDS011;6730;46.248;6.930;2024-03-02T09:32:50;1.70;;;1.13;;
13321;SDS011;6730;46.248;6.930;2024-03-02T09:35:16;2.33;;;1.30;;
13321;SDS011;6730;46.248;6.930;2024-03-02T09:37:41;1.40;;;1.30;;
13321;SDS011;6730;46.248;6.930;2024-03-02T09:40:07;1.30;;;1.13;;
13321;SDS011;6730;46.248;6.930;2024-03-02T09:42:33;1.25;;;1.13;;
13321;SDS011;6730;46.248;6.930;2024-03-02T09:44:59;1.27;;;1.17;;
13321;SDS011;6730;46.248;6.930;2024-03-02T09:47:25;1.80;;;1.23;;
13321;SDS011;6730;46.248;6.930;2024-03-02T09:49:51;1.90;;;1.42;;
13321;SDS011;6730;46.248;6.930;2024-03-02T09:52:17;1.70;;;1.30;;
13321;SDS011;6730;46.248;6.930;2024-03-02T09:54:42;1.20;;;1.10;;
13321;SDS011;6730;46.248;6.930;2024-03-02T09:57:08;1.35;;;1.13;;
13321;SDS011;6730;46.248;6.930;2024-03-02T09:59:34;3.63;;;1.20;;
13321;SDS011;6730;46.248;6.930;2024-03-02T10:02:03;1.30;;;1.20;;
13321;SDS011;6730;46.248;6.930;2024-03-02T10:04:32;1.40;;;1.30;;
13321;SDS011;6730;46.248;6.930;2024-03-02T10:07:14;1.83;;;1.00;;
13321;SDS011;6730;46.248;6.930;2024-03-02T10:09:41;2.08;;;1.30;;
13321;SDS011;6730;46.248;6.930;2024-03-02T10:12:08;2.88;;;1.42;;
13321;SDS011;6730;46.248;6.930;2024-03-02T10:14:35;1.00;;;0.85;;
13321;SDS011;6730;46.248;6.930;2024-03-02T10:19:31;1.30;;;1.20;;
13321;SDS011;6730;46.248;6.930;2024-03-02T10:22:03;1.25;;;1.15;;
13321;SDS011;6730;46.248;6.930;2024-03-02T10:24:38;1.05;;;0.90;;
13321;SDS011;6730;46.248;6.930;2024-03-02T10:27:09;2.40;;;1.23;;
13321;SDS011;6730;46.248;6.930;2024-03-02T10:29:39;1.83;;;1.20;;
13321;SDS011;6730;46.248;6.930;2024-03-02T10:32:05;2.13;;;1.30;;
13321;SDS011;6730;46.248;6.930;2024-03-02T10:34:35;1.67;;;1.23;;
13321;SDS011;6730;46.248;6.930;2024-03-02T10:37:01;2.97;;;1.00;;
13321;SDS011;6730;46.248;6.930;2024-03-02T10:39:27;1.80;;;1.02;;
13321;SDS011;6730;46.248;6.930;2024-03-02T10:41:53;2.45;;;1.10;;
13321;SDS011;6730;46.248;6.930;2024-03-02T10:44:21;1.10;;;1.00;;
13321;SDS011;6730;46.248;6.930;2024-03-02T10:46:48;1.95;;;1.13;;
13321;SDS011;6730;46.248;6.930;2024-03-02T10:49:18;1.27;;;1.17;;
13321;SDS011;6730;46.248;6.930;2024-03-02T10:51:45;1.38;;;1.10;;
13321;SDS011;6730;46.248;6.930;2024-03-02T10:54:11;1.23;;;1.00;;
13321;SDS011;6730;46.248;6.930;2024-03-02T11:01:52;2.05;;;1.27;;
13321;SDS011;6730;46.248;6.930;2024-03-02T11:04:25;1.27;;;1.17;;
13321;SDS011;6730;46.248;6.930;2024-03-02T11:06:52;1.52;;;1.15;;
13321;SDS011;6730;46.248;6.930;2024-03-02T11:09:31;1.50;;;1.35;;
13321;SDS011;6730;46.248;6.930;2024-03-02T11:12:03;1.27;;;1.15;;
13321;SDS011;6730;46.248;6.930;2024-03-02T11:14:45;1.25;;;1.15;;
13321;SDS011;6730;46.248;6.930;2024-03-02T11:17:11;1.65;;;1.33;;
13321;SDS011;6730;46.248;6.930;2024-03-02T11:19:40;3.65;;;1.38;;
13321;SDS011;6730;46.248;6.930;2024-03-02T11:22:08;3.05;;;1.50;;
13321;SDS011;6730;46.248;6.930;2024-03-02T11:24:34;2.05;;;1.55;;
13321;SDS011;6730;46.248;6.930;2024-03-02T11:27:04;4.25;;;1.40;;
13321;SDS011;6730;46.248;6.930;2024-03-02T11:34:47;1.83;;;1.60;;
13321;SDS011;6730;46.248;6.930;2024-03-02T11:37:17;1.83;;;1.50;;
13321;SDS011;6730;46.248;6.930;2024-03-02T11:39:44;1.88;;;1.52;;
13321;SDS011;6730;46.248;6.930;2024-03-02T11:42:16;1.65;;;1.45;;
13321;SDS011;6730;46.248;6.930;2024-03-02T11:44:43;3.40;;;1.58;;
13321;SDS011;6730;46.248;6.930;2024-03-02T11:47:11;1.60;;;1.50;;
13321;SDS011;6730;46.248;6.930;2024-03-02T11:49:41;2.50;;;1.70;;
13321;SDS011;6730;46.248;6.930;2024-03-02T11:52:10;2.92;;;1.70;;
13321;SDS011;6730;46.248;6.930;2024-03-02T11:54:37;2.28;;;1.52;;
13321;SDS011;6730;46.248;6.930;2024-03-02T11:57:11;2.17;;;1.35;;
13321;SDS011;6730;46.248;6.930;2024-03-02T11:59:39;1.88;;;1.60;;
13321;SDS011;6730;46.248;6.930;2024-03-02T12:02:05;2.05;;;1.63;;
13321;SDS011;6730;46.248;6.930;2024-03-02T12:04:31;1.50;;;1.40;;
13321;SDS011;6730;46.248;6.930;2024-03-02T12:06:57;1.77;;;1.48;;
13321;SDS011;6730;46.248;6.930;2024-03-02T12:09:28;2.15;;;1.50;;
13321;SDS011;6730;46.248;6.930;2024-03-02T12:12:07;2.72;;;1.60;;
13321;SDS011;6730;46.248;6.930;2024-03-02T12:14:35;2.40;;;1.92;;
13321;SDS011;6730;46.248;6.930;2024-03-02T12:17:02;1.70;;;1.60;;
13321;SDS011;6730;46.248;6.930;2024-03-02T12:19:28;1.30;;;1.20;;
13321;SDS011;6730;46.248;6.930;2024-03-02T12:21:58;1.90;;;1.50;;
13321;SDS011;6730;46.248;6.930;2024-03-02T12:24:26;1.50;;;1.40;;
13321;SDS011;6730;46.248;6.930;2024-03-02T12:26:53;1.90;;;1.70;;
13321;SDS011;6730;46.248;6.930;2024-03-02T12:29:20;2.00;;;1.70;;
13321;SDS011;6730;46.248;6.930;2024-03-02T12:31:50;1.60;;;1.40;;
13321;SDS011;6730;46.248;6.930;2024-03-02T12:34:17;2.25;;;1.60;;
13321;SDS011;6730;46.248;6.930;2024-03-02T12:36:44;1.98;;;1.23;;
13321;SDS011;6730;46.248;6.930;2024-03-02T12:39:13;1.23;;;1.13;;
13321;SDS011;6730;46.248;6.930;2024-03-02T12:41:39;1.60;;;1.42;;
13321;SDS011;6730;46.248;6.930;2024-03-02T12:44:06;1.55;;;1.45;;
13321;SDS011;6730;46.248;6.930;2024-03-02T12:46:32;2.67;;;1.63;;
13321;SDS011;6730;46.248;6.930;2024-03-02T12:49:05;2.80;;;1.45;;
13321;SDS011;6730;46.248;6.930;2024-03-02T12:51:37;5.30;;;1.60;;
13321;SDS011;6730;46.248;6.930;2024-03-02T12:54:05;1.50;;;1.27;;
13321;SDS011;6730;46.248;6.930;2024-03-02T12:56:40;1.35;;;1.10;;
13321;SDS011;6730;46.248;6.930;2024-03-02T12:59:21;1.67;;;1.58;;
13321;SDS011;6730;46.248;6.930;2024-03-02T13:01:51;1.80;;;1.70;;
13321;SDS011;6730;46.248;6.930;2024-03-02T13:04:23;5.32;;;1.40;;
13321;SDS011;6730;46.248;6.930;2024-03-02T13:06:49;2.22;;;1.60;;
13321;SDS011;6730;46.248;6.930;2024-03-02T13:09:16;2.25;;;1.55;;
13321;SDS011;6730;46.248;6.930;2024-03-02T13:11:42;1.35;;;1.25;;
13321;SDS011;6730;46.248;6.930;2024-03-02T13:14:08;2.17;;;1.50;;
13321;SDS011;6730;46.248;6.930;2024-03-02T13:16:39;1.50;;;1.40;;
13321;SDS011;6730;46.248;6.930;2024-03-02T13:19:08;2.22;;;2.03;;
13321;SDS011;6730;46.248;6.930;2024-03-02T13:21:34;1.88;;;1.67;;
13321;SDS011;6730;46.248;6.930;2024-03-02T13:24:00;2.85;;;1.50;;
13321;SDS011;6730;46.248;6.930;2024-03-02T13:26:26;1.50;;;1.30;;
13321;SDS011;6730;46.248;6.930;2024-03-02T13:28:52;1.58;;;1.48;;
13321;SDS011;6730;46.248;6.930;2024-03-02T13:31:18;2.30;;;1.60;;
13321;SDS011;6730;46.248;6.930;2024-03-02T13:33:44;3.50;;;1.58;;
13321;SDS011;6730;46.248;6.930;2024-03-02T13:36:09;1.60;;;1.50;;
13321;SDS011;6730;46.248;6.930;2024-03-02T13:38:35;2.15;;;1.73;;
13321;SDS011;6730;46.248;6.930;2024-03-02T13:41:01;1.95;;;1.60;;
13321;SDS011;6730;46.248;6.930;2024-03-02T13:43:27;1.92;;;1.70;;
13321;SDS011;6730;46.248;6.930;2024-03-02T13:45:53;1.40;;;1.30;;
13321;SDS011;6730;46.248;6.930;2024-03-02T13:48:19;1.75;;;1.52;;
13321;SDS011;6730;46.248;6.930;2024-03-02T13:50:45;1.70;;;1.60;;
13321;SDS011;6730;46.248;6.930;2024-03-02T13:53:11;1.85;;;1.70;;
13321;SDS011;6730;46.248;6.930;2024-03-02T13:55:37;2.97;;;2.00;;
13321;SDS011;6730;46.248;6.930;2024-03-02T13:58:03;3.47;;;2.80;;
13321;SDS011;6730;46.248;6.930;2024-03-02T14:00:29;1.95;;;1.60;;
13321;SDS011;6730;46.248;6.930;2024-03-02T14:02:55;2.00;;;1.73;;
13321;SDS011;6730;46.248;6.930;2024-03-02T14:05:21;1.60;;;1.50;;
13321;SDS011;6730;46.248;6.930;2024-03-02T14:07:46;1.95;;;1.70;;
13321;SDS011;6730;46.248;6.930;2024-03-02T14:10:12;1.40;;;1.30;;
13321;SDS011;6730;46.248;6.930;2024-03-02T14:12:39;1.65;;;1.50;;
13321;SDS011;6730;46.248;6.930;2024-03-02T14:15:05;2.42;;;1.98;;
13321;SDS011;6730;46.248;6.930;2024-03-02T14:17:32;1.48;;;1.38;;
13321;SDS011;6730;46.248;6.930;2024-03-02T14:19:57;1.83;;;1.73;;
13321;SDS011;6730;46.248;6.930;2024-03-02T14:22:26;1.75;;;1.50;;
13321;SDS011;6730;46.248;6.930;2024-03-02T14:24:52;1.52;;;1.42;;
13321;SDS011;6730;46.248;6.930;2024-03-02T14:27:18;1.75;;;1.65;;
13321;SDS011;6730;46.248;6.930;2024-03-02T14:29:44;2.70;;;1.80;;
13321;SDS011;6730;46.248;6.930;2024-03-02T14:32:09;2.33;;;1.52;;
13321;SDS011;6730;46.248;6.930;2024-03-02T14:34:35;1.67;;;1.52;;
13321;SDS011;6730;46.248;6.930;2024-03-02T14:37:01;3.67;;;2.90;;
13321;SDS011;6730;46.248;6.930;2024-03-02T14:39:27;2.40;;;1.70;;
13321;SDS011;6730;46.248;6.930;2024-03-02T14:41:54;2.22;;;1.80;;
13321;SDS011;6730;46.248;6.930;2024-03-02T14:44:20;3.13;;;1.80;;
13321;SDS011;6730;46.248;6.930;2024-03-02T14:46:47;2.33;;;1.33;;
13321;SDS011;6730;46.248;6.930;2024-03-02T14:49:16;2.03;;;1.52;;
13321;SDS011;6730;46.248;6.930;2024-03-02T14:51:43;1.50;;;1.40;;
13321;SDS011;6730;46.248;6.930;2024-03-02T14:54:09;1.60;;;1.40;;
13321;SDS011;6730;46.248;6.930;2024-03-02T14:56:35;6.70;;;2.85;;
13321;SDS011;6730;46.248;6.930;2024-03-02T14:59:00;2.17;;;1.55;;
13321;SDS011;6730;46.248;6.930;2024-03-02T15:01:26;2.30;;;1.80;;
13321;SDS011;6730;46.248;6.930;2024-03-02T15:03:54;2.50;;;1.65;;
13321;SDS011;6730;46.248;6.930;2024-03-02T15:06:20;1.70;;;1.60;;
13321;SDS011;6730;46.248;6.930;2024-03-02T15:08:45;2.95;;;1.58;;
13321;SDS011;6730;46.248;6.930;2024-03-02T15:11:11;1.60;;;1.48;;